Adelanto, CA

5:23 PM PST on January 27, 2015 (GMT -0800)
El Mirage Airport (99CL) | Change Station
CLOSE
Current Station
Personal Weather Station
Location: Adelanto, CA
Elevation: 2880 ft
Nearby Weather Stations

Elev 2880 ft 34.62 °N, 117.60 °W | Updated 3 minutes ago

Partly Cloudy
Partly Cloudy
56.4 °F
Feels Like 56.4 °F
N
4.7
Wind Variable Wind from WNW
Gusts 5.6 mph

Today
High -- | Low -- °F
--% Chance of Precip.
Yesterday
High -- | Low -- °F
Precip. -- in
6:51 AM 5:14 PM
First Quarter, 59% visible
Pressure 30.20 in
Visibility 10.0 miles
Clouds Clear
Dew Point 21 °F
Humidity 25%
Rainfall 0.00 in
Snow Depth Not available.
UV 0 out of 12
Pollen 6.10 out of 12
Air Quality Not available.
Flu Activity Not available.
METAR KVCV 280055Z AUTO 00000KT 10SM CLR 13/09 A3020 RMK AO2

More Conditions Fewer Conditions

Pressure 30.20 in
Visibility 10.0 miles
Clouds Clear
Dew Point 21 °F
Humidity 25%
Rainfall 0.00 in
Snow Depth Not available.
UV 0 out of 12
Pollen 6.10 out of 12
Air Quality Not available.
Flu Activity Not available.
METAR KVCV 280055Z AUTO 00000KT 10SM CLR 13/09 A3020 RMK AO2

More Conditions Fewer Conditions

10-Day Weather Forecast

Almanac

Astronomy

Jan. 27, 2015 Rise Set
Actual Time
Civil Twilight
Nautical Twilight
Astronomical Twilight
Moon
Length of Visible Light
Length of Day
Tomorrow will be .
, % of the Moon is Illuminated

Today's Extremes

State Highs State Lows

Community

WunderPhotos

Upload Photos

1,791,024 photos uploaded!

WunderBlogs® & News

Nearby

Air Quality

  Air Quality AQ Index Pollutant
Not available.

Snow Depth

Station Depth Elevation

Earthquake Activity

City Distance Mag. Time & Date
Minimum magnitude displayed is 2.5.

Coastal Water Temperatures

Place Temperature

Nearby Weather Stations